Santa Isabel, Brazil
Current Conditions -  °F | °C
As of 12:00 PM on Monday 22 Dec 2014 (Local Time) from SBGR Reporting Station
Broken Clouds Broken Clouds  
Wind Chill: 27°   Ceiling: 3000
Heat Index: 29°   Visibility: 6mi
Dew Point: 21°   Wind: 13mph
Humidity: 70%   Direction: 310°NW
Pressure: 30"   Gusts: NA
Location:  23.32°S, 46.22°W
Report Text: SBGR 221400Z 31011KT 9999 BKN030 27/21 Q1016
Loading
Personal Weather Stations






























Interactive Weather Map New forecast layout! Learn more

10-Day Weather Forecast

Advertisements
Track Severe Weather on mobile